Ride Results

Waterloo Community Cup 2 (10-03-2018)
Ride distance: 80.0 km

Outcomes - Waterloo Community Cup 2 (10-03-2018)
Division No. of Entries Retired / DNE Completed Withdrawn Ineligible V/O Percentage Completed
HW 4 - 2 - - 2 50.00%
MW 12 - 11 - - - 91.67%
LW 10 - 8 1 - 1 80.00%
JN 6 - 5 - - 1 83.33%
Totals 32 - 26 1 - 4 81.25%
Results - Waterloo Community Cup 2 (10-03-2018)
No. Rider Horse Place Time Leg Speeds Total
Km/Hr
H/R bpm
Heavyweight
762 Shanna Milne Telly-O 1 (BC) 6:12:00 12.5, 13.2 12.90 39, 50, 52 (Avg:51)
330 Rob West Cedarwood Lodge Red Diamond 2 7:12:00 10.6, 11.5 11.11 36, 51, 46 (Avg:48)
225 Harrison Berg Madgwick Rashaqa Lame L2 0:00:00 10.2, 10.4 - 38, 42, 48 (Avg:45)
199 Peter Farrell The Grove Koby Donald Heart Rate L2 0:00:00 12.4, 12.3 - 41, 53, 68 (Avg:60)
Middleweight
233 Paul Bryson Willy 1 4:40:00 16.2, 18.1 17.14 36, 52, 49 (Avg:50)
244 Marty Bryson Castlebar Shatan 1 (BC) 4:40:00 16.2, 18.1 17.14 40, 44, 44 (Avg:44)
192 Tabitha Verspaandonk Eminem Phairow 3 4:50:00 16.1, 17.0 16.55 34, 55, 44 (Avg:49)
291 Kerryn Agnew Performance Park Menphis Rain 4 5:37:00 12.4, 16.5 14.24 34, 45, 54 (Avg:49)
168 Trish VanDonk Temar Shamarra 5 5:51:00 12.6, 14.8 13.68 39, 45, 48 (Avg:46)
195 Nikita Verspaandonk Silverline Jetstream 6 5:57:00 12.6, 14.2 13.45 41, 48, 54 (Avg:51)
315 Matt Milne Yaraandoo Myee-Jarrah 7 6:11:00 12.5, 13.3 12.94 35, 54, 52 (Avg:53)
799 Amy Bellhouse Musical Gully Comedia 8 6:36:00 11.5, 12.6 12.12 42, 44, 51 (Avg:47)
286 Jason Rathbone El Zahabi Talik 9 6:42:00 12.3, 11.5 11.94 41, 48, 50 (Avg:49)
131 Simon Thomas Rocky Point Black Sardonyx 10 7:04:00 11.0, 11.5 11.32 36, 46, 50 (Avg:48)
267 Ella Leehane Future Dream Bella 11 7:05:00 11.1, 11.4 11.29 44, 45, 53 (Avg:49)
309 Robyn Player Breakaway Image of Marwan 7:44:00 - 10.34 36, 44, 54 (Avg:49)
Lightweight
318 Rebecca Williamson Cougar Swan Chiron 1 5:21:00 14.7, 15.1 14.95 42, 52, 50 (Avg:51)
22 Sarah McLaughlin Tonki Dee Boo Betty 2 (BC) 5:37:00 12.7, 16.1 14.24 28, 44, 50 (Avg:47)
772 Rebecca Ford Trapper 3 6:08:00 12.8, 13.2 13.04 43, 49, 52 (Avg:50)
183 Nicky Robinson Sterling Nakeeta 4 6:30:00 12.7, 11.8 12.31 41, 46, 53 (Avg:49)
278 Gina Thompson Echo Jamaal 5 6:36:00 11.5, 12.6 12.12 40, 49, 42 (Avg:45)
63 Pamela Cox Aloha Delilah 6 6:43:00 12.3, 11.4 11.91 34, 40, 45 (Avg:42)
151 Kasey Thomas Rocky Point Sands of Cymophane 7 7:04:00 11.0, 11.5 11.32 40, 47, 58 (Avg:52)
774 Tracy-Lee Feltrin Newbury Illustraa's Impact 8 7:05:00 11.1, 11.4 11.29 37, 45, 50 (Avg:47)
91 Kim Noble Springridge Phoenix Lame L1 0:00:00 10.2 - 31, 34 (Avg:34)
281 Taylah Nikolic Shemesh El Nadir Withdrawn P/R 0:00:00 - - 35
Junior
288 Daisy Bryson Accelerate 1 (BC) 4:40:00 16.2, 18.1 17.14 42, 52, 51 (Avg:51)
283 Zoe Rathbone Blake's Heaven Dawn Treader 2 6:43:00 12.3, 11.4 11.91 37, 45, 58 (Avg:51)
766 Leia Werner Picnic Park Yilma 2 6:43:00 12.3, 11.4 11.91 71, 50, 60 (Avg:55)
292 Alison Noble Strogar 4 7:16:00 10.2, 11.9 11.01 41, 42, 52 (Avg:47)
760 Cassidy Worden Chelleason Bey Justynn 5 7:56:00 9.6, 10.5 10.08 31, 42, 48 (Avg:45)
289 Sophie Hart Yandilla Ultimate Affair Heart Rate L1 0:00:00 19.9 - 38, 61 (Avg:61)